Paynesville, MN

9:58 PM CDT on April 20, 2015 (GMT -0500)
Paynesville | | Change Station
CLOSE
Current Station
Airport
Location: Paynesville,
Elevation: 1181 ft
Nearby Weather Stations

Elev 1181 ft 45.37 °N, 94.74 °W | Updated 25 minutes ago

Overcast
Overcast
33 °F
Feels Like 24 °F
N
14
Wind Variable Wind from WSW
Gusts 18 mph

Today
High -- | Low -- °F
--% Chance of Precip.
Yesterday
High -- | Low -- °F
Precip. -- in
6:25 AM 8:11 PM
Waxing Crescent, 7% visible
Pressure 29.59 in
Visibility 10.0 miles
Clouds Scattered Clouds 2300 ft
Mostly Cloudy 2800 ft
Overcast 11000 ft
Windchill 24 °F
Dew Point 30 °F
Humidity 86%
Rainfall 0.00 in
Snow Depth Not available.
UV 0 out of 12
Pollen 10.60 out of 12
Air Quality Not available.
Flu Activity Local Activity
METAR KPEX 210233Z AUTO 25012G16KT 10SM SCT023 BKN028 OVC110 01/M01 A2959 RMK AO2 T00071014

More Conditions Fewer Conditions

Pressure 29.59 in
Visibility 10.0 miles
Clouds Scattered Clouds 2300 ft
Mostly Cloudy 2800 ft
Overcast 11000 ft
Windchill 24 °F
Dew Point 30 °F
Humidity 86%
Rainfall 0.00 in
Snow Depth Not available.
UV 0 out of 12
Pollen 10.60 out of 12
Air Quality Not available.
Flu Activity Local Activity
METAR KPEX 210233Z AUTO 25012G16KT 10SM SCT023 BKN028 OVC110 01/M01 A2959 RMK AO2 T00071014

More Conditions Fewer Conditions

10-Day Weather Forecast

Almanac

Astronomy

Apr. 20, 2015 Rise Set
Actual Time
Civil Twilight
Nautical Twilight
Astronomical Twilight
Moon
Length of Visible Light
Length of Day
Tomorrow will be .
, % of the Moon is Illuminated

Today's Extremes

State Highs State Lows

Community

WunderPhotos

Upload Photos

1,815,283 photos uploaded!

WunderBlogs® & News

Nearby

Air Quality

  Air Quality AQ Index Pollutant
Not available.

Snow Depth

Station Depth Elevation

Earthquake Activity

City Distance Mag. Time & Date
Minimum magnitude displayed is 2.5.

Coastal Water Temperatures

Place Temperature

Stations

Nearby Weather Stations

Station Location Temp. Windchill Dew Point Humidity Wind Precip. Elev Updated Type